Pagrindinis puslapis
METAR-TAF:

METAR-TAF

Oro uostai :

Trolhetanas-Venešborgas, Švedija

platuma: 58-19N, ilguma: 012-21E, Aukštis: 41 m

Dabartinis oras

Ataskaita buvo paskelbta 21 minutes, ne 22:50 UTC
Vėjas 7 kt iš Pietų/Pietryčių
Temperatūra 12°C
Drėgmė 94%
Slėgis 1010 hPa
Matomumas 10 km arba daugiau

METAR: ESGT 142250Z AUTO 15007KT 9999 NCD 12/11 Q1010

Laikas: 01:11 (23:11 UTC)

Prognozė

Ataskaita buvo paskelbta 6 valandos ir 36 minutes, ne 16:35 UTC
Prognozė galioja nuo 14 metu 16 UTC su 14 metu 18 UTC
Vėjas 11 kt iš Pietų/Pietvakarių
Matomumas 10 km arba daugiau
Su prošvaistėmis ne aukštis 1500 ft
Tikimybė 40%
nuo 14 metu 16 UTC su 14 metu 18 UTC
Matomumas: 4000 m
Su prošvaistėmis ne aukštis 1400 ft
Su prošvaistėmis ne aukštis 2000 ft, Liūtiniai kamuoliniai debesys.
lietus,

TAF: ESGT 141635Z 1416/1418 20011KT 9999 BKN015 PROB40 1416/1418 4000 SHRA BKN014 BKN020CB

Orai ataskaitas ir orų prognozės (METAR, TAF).

turimą stotys yra geltonos ir raudonos taškus žemėlapyje.

Perkelti pele per norėdami pamatyti stoties vardą.

Tada spustelėkite, norėdami matyti oro stebėjimo ir prognozės.

Norėdami pakeisti žemėlapį: spustelėkite ant žalios mygtukų su juodo kryžiaus žemyn,; žalią mygtuką su brūkšneliu, jei norite nutolinti; arba žalių rodyklių gretimoms žemėlapius.


METAR-TAF: